createdAt,value
2023-10-10T00:00:57.008Z,8.16
2023-10-10T00:03:33.969Z,8.19
2023-10-10T00:06:09.854Z,8.24
2023-10-10T00:08:42.600Z,8.31
2023-10-10T00:11:20.421Z,8.34
2023-10-10T00:13:54.317Z,8.33
2023-10-10T00:16:27.682Z,8.30
2023-10-10T00:18:57.350Z,8.29
2023-10-10T00:21:25.749Z,8.25
2023-10-10T00:23:56.557Z,8.26
2023-10-10T00:26:27.326Z,8.27
2023-10-10T00:28:56.041Z,8.29
2023-10-10T00:31:28.484Z,8.24
2023-10-10T00:33:57.469Z,8.15
2023-10-10T00:36:31.756Z,8.15
2023-10-10T00:39:09.189Z,8.17
2023-10-10T00:42:05.337Z,8.09
2023-10-10T00:44:38.697Z,8.05
2023-10-10T00:47:27.576Z,8.05
2023-10-10T00:49:56.816Z,8.02
2023-10-10T00:52:25.526Z,8.02
2023-10-10T00:54:54.296Z,7.97
2023-10-10T00:57:22.920Z,7.94
2023-10-10T00:59:56.117Z,7.88
2023-10-10T01:02:25.198Z,7.91
2023-10-10T01:04:58.808Z,7.85
2023-10-10T01:07:28.096Z,7.92
2023-10-10T01:10:01.119Z,7.92
2023-10-10T01:12:37.341Z,7.94
2023-10-10T01:15:15.572Z,7.88
2023-10-10T01:17:46.499Z,7.95
2023-10-10T01:20:20.905Z,8.00
2023-10-10T01:22:50.225Z,7.92
2023-10-10T01:25:35.716Z,7.87
2023-10-10T01:28:15.521Z,7.76
2023-10-10T01:30:56.665Z,7.70
2023-10-10T01:33:36.936Z,7.57
2023-10-10T01:36:22.128Z,7.53
2023-10-10T01:39:04.324Z,7.54
2023-10-10T01:41:33.420Z,7.47
2023-10-10T01:44:14.887Z,7.53
2023-10-10T01:46:43.725Z,7.59
2023-10-10T01:49:21.696Z,7.63
2023-10-10T01:52:00.851Z,7.74
2023-10-10T01:54:47.305Z,7.71
2023-10-10T01:57:25.632Z,7.75
2023-10-10T01:59:54.681Z,7.77
2023-10-10T02:02:26.087Z,7.76
2023-10-10T02:05:00.895Z,7.80
2023-10-10T02:07:33.656Z,7.80
2023-10-10T02:10:14.930Z,7.72
2023-10-10T02:12:47.749Z,7.77
2023-10-10T02:15:20.566Z,7.72
2023-10-10T02:17:58.250Z,7.71
2023-10-10T02:20:26.860Z,7.75
2023-10-10T02:23:02.563Z,7.71
2023-10-10T02:25:37.115Z,7.65
2023-10-10T02:28:21.962Z,7.64
2023-10-10T02:30:54.154Z,7.66
2023-10-10T02:33:25.522Z,7.65
2023-10-10T02:35:58.261Z,7.65
2023-10-10T02:38:38.527Z,7.62
2023-10-10T02:41:22.962Z,7.62
2023-10-10T02:44:11.284Z,7.72
2023-10-10T02:46:42.546Z,7.66
2023-10-10T02:49:31.294Z,7.58
2023-10-10T02:52:08.105Z,7.55
2023-10-10T02:54:44.940Z,7.53
2023-10-10T02:57:25.737Z,7.51
2023-10-10T03:00:30.261Z,7.54
2023-10-10T03:03:00.635Z,7.56
2023-10-10T03:05:44.907Z,7.56
2023-10-10T03:08:28.183Z,7.51
2023-10-10T03:10:56.769Z,7.50
2023-10-10T03:13:49.602Z,7.39
2023-10-10T03:16:24.151Z,7.37
2023-10-10T03:19:04.012Z,7.40
2023-10-10T03:21:45.246Z,7.39
2023-10-10T03:24:24.781Z,7.41
2023-10-10T03:26:54.175Z,7.41
2023-10-10T03:29:28.237Z,7.49
2023-10-10T03:32:17.352Z,7.52
2023-10-10T03:34:46.466Z,7.47
2023-10-10T03:37:27.384Z,7.45
2023-10-10T03:39:59.459Z,7.39
2023-10-10T03:42:47.229Z,7.43
2023-10-10T03:45:34.301Z,7.47
2023-10-10T03:48:21.544Z,7.46
2023-10-10T03:51:08.418Z,7.47
2023-10-10T03:53:55.295Z,7.46
2023-10-10T03:56:42.334Z,7.50
2023-10-10T03:59:29.452Z,7.56
2023-10-10T04:02:57.032Z,7.56
2023-10-10T04:05:44.103Z,7.64
2023-10-10T04:08:59.725Z,7.57
2023-10-10T04:11:46.889Z,7.54
2023-10-10T04:14:33.678Z,7.45
2023-10-10T04:17:20.532Z,7.45
2023-10-10T04:20:08.107Z,7.36
2023-10-10T04:22:55.147Z,7.42
2023-10-10T04:25:42.168Z,7.43
2023-10-10T04:28:29.559Z,7.43
2023-10-10T04:31:16.907Z,7.47
2023-10-10T04:34:04.155Z,7.44
2023-10-10T04:36:51.243Z,7.41
2023-10-10T04:39:38.258Z,7.45
2023-10-10T04:42:25.245Z,7.43
2023-10-10T04:45:12.126Z,7.39
2023-10-10T04:47:59.661Z,7.41
2023-10-10T04:50:50.706Z,7.45
2023-10-10T04:53:39.600Z,7.45
2023-10-10T04:56:27.047Z,7.48
2023-10-10T04:59:14.770Z,7.53
2023-10-10T05:02:02.247Z,7.46
2023-10-10T05:05:11.773Z,7.56
2023-10-10T05:08:20.444Z,7.50
2023-10-10T05:11:08.456Z,7.51
2023-10-10T05:13:57.281Z,7.52
2023-10-10T05:16:44.533Z,7.56
2023-10-10T05:19:37.095Z,7.62
2023-10-10T05:22:24.276Z,7.66
2023-10-10T05:24:56.597Z,7.61
2023-10-10T05:27:31.536Z,7.71
2023-10-10T05:30:01.983Z,7.77
2023-10-10T05:32:33.989Z,7.80
2023-10-10T05:35:12.874Z,7.80
2023-10-10T05:37:42.148Z,7.82
2023-10-10T05:40:10.923Z,7.71
2023-10-10T05:42:40.595Z,7.76
2023-10-10T05:45:15.586Z,7.89
2023-10-10T05:47:44.516Z,7.97
2023-10-10T05:50:13.299Z,7.92
2023-10-10T05:52:42.442Z,8.00
2023-10-10T05:58:24.584Z,7.99
2023-10-10T06:00:57.428Z,7.90
2023-10-10T06:03:27.368Z,7.90
2023-10-10T06:05:58.345Z,8.02
2023-10-10T06:08:27.135Z,8.13
2023-10-10T06:10:58.140Z,8.17
2023-10-10T06:13:27.143Z,8.24
2023-10-10T06:15:55.690Z,8.30
2023-10-10T06:18:24.897Z,8.31
2023-10-10T06:23:37.257Z,8.41
2023-10-10T06:26:08.593Z,8.45
2023-10-10T06:28:37.744Z,8.53
2023-10-10T06:31:22.781Z,8.56
2023-10-10T06:33:52.162Z,8.62
2023-10-10T06:36:26.481Z,8.66
2023-10-10T06:39:06.788Z,8.68
2023-10-10T06:41:42.119Z,8.79
2023-10-10T06:44:19.181Z,8.77
2023-10-10T06:46:50.261Z,8.87
2023-10-10T06:49:22.850Z,8.89
2023-10-10T06:51:51.640Z,9.08
2023-10-10T06:54:29.482Z,9.15
2023-10-10T06:57:00.405Z,9.21
2023-10-10T06:59:30.492Z,9.21
2023-10-10T07:02:15.375Z,9.27
2023-10-10T07:04:44.284Z,9.32
2023-10-10T07:07:15.096Z,9.35
2023-10-10T07:09:43.905Z,9.29
2023-10-10T07:12:15.454Z,9.29
2023-10-10T07:14:48.682Z,9.24
2023-10-10T07:17:23.795Z,9.17
2023-10-10T07:20:02.473Z,9.29
2023-10-10T07:22:36.144Z,9.45
2023-10-10T07:25:28.076Z,9.59
2023-10-10T07:27:58.381Z,9.65
2023-10-10T07:30:35.972Z,9.77
2023-10-10T07:33:06.399Z,9.74
2023-10-10T07:35:37.987Z,9.96
2023-10-10T07:38:07.345Z,9.99
2023-10-10T07:40:39.953Z,10.13
2023-10-10T07:43:09.144Z,10.25
2023-10-10T07:45:43.510Z,10.29
2023-10-10T07:48:23.158Z,10.29
2023-10-10T07:50:58.189Z,10.15
2023-10-10T07:53:36.025Z,10.24
2023-10-10T07:56:04.851Z,10.30
2023-10-10T07:58:53.436Z,10.36
2023-10-10T08:01:22.839Z,10.38
2023-10-10T08:03:52.822Z,10.55
2023-10-10T08:06:24.941Z,10.63
2023-10-10T08:09:14.549Z,10.72
2023-10-10T08:11:49.731Z,10.65
2023-10-10T08:14:33.829Z,10.68
2023-10-10T08:17:05.950Z,10.60
2023-10-10T08:19:35.212Z,10.50
2023-10-10T08:22:14.152Z,10.50
2023-10-10T08:24:45.336Z,10.63
2023-10-10T08:27:14.189Z,10.70
2023-10-10T08:29:51.217Z,10.67
2023-10-10T08:32:20.359Z,10.71
2023-10-10T08:35:01.357Z,10.74
2023-10-10T08:37:45.922Z,10.78
2023-10-10T08:40:23.532Z,10.73
2023-10-10T08:42:52.258Z,10.68
2023-10-10T08:45:25.156Z,10.92
2023-10-10T08:48:03.545Z,11.05
2023-10-10T08:50:35.973Z,11.11
2023-10-10T08:53:08.014Z,11.14
2023-10-10T08:55:40.408Z,11.09
2023-10-10T08:58:10.356Z,11.13
2023-10-10T09:00:39.442Z,11.13
2023-10-10T09:03:10.720Z,11.11
2023-10-10T09:05:42.118Z,11.07
2023-10-10T09:08:20.265Z,11.22
2023-10-10T09:10:54.705Z,11.29
2023-10-10T09:13:27.361Z,11.39
2023-10-10T09:16:12.370Z,11.42
2023-10-10T09:18:43.965Z,11.47
2023-10-10T09:21:20.344Z,11.55
2023-10-10T09:24:09.657Z,11.61
2023-10-10T09:26:44.308Z,11.55
2023-10-10T09:29:30.386Z,11.68
2023-10-10T09:32:03.605Z,11.69
2023-10-10T09:34:44.936Z,11.61
2023-10-10T09:37:28.966Z,11.63
2023-10-10T09:39:58.382Z,11.54
2023-10-10T09:42:53.709Z,11.57
2023-10-10T09:45:54.775Z,11.59
2023-10-10T09:48:51.410Z,11.57
2023-10-10T09:51:41.564Z,11.74
2023-10-10T09:54:17.829Z,11.79
2023-10-10T09:56:59.133Z,11.86
2023-10-10T09:59:30.297Z,12.01
2023-10-10T10:02:04.372Z,12.13
2023-10-10T10:04:43.772Z,12.20
2023-10-10T10:07:37.362Z,12.26
2023-10-10T10:10:11.012Z,12.18
2023-10-10T10:13:16.156Z,12.22
2023-10-10T10:16:14.179Z,12.16
2023-10-10T10:18:53.792Z,12.05
2023-10-10T10:21:33.417Z,12.03
2023-10-10T10:24:18.961Z,12.09
2023-10-10T10:27:30.247Z,12.04
2023-10-10T10:30:20.639Z,12.06
2023-10-10T10:32:56.692Z,12.02
2023-10-10T10:35:49.871Z,12.10
2023-10-10T10:38:24.963Z,12.16
2023-10-10T10:41:08.852Z,12.08
2023-10-10T10:43:42.876Z,11.92
2023-10-10T10:46:16.476Z,12.00
2023-10-10T10:48:49.499Z,12.02
2023-10-10T10:51:29.713Z,12.12
2023-10-10T10:54:00.541Z,12.15
2023-10-10T10:56:30.989Z,12.18
2023-10-10T10:59:14.795Z,12.17
2023-10-10T11:02:00.257Z,12.15
2023-10-10T11:04:33.587Z,12.18
2023-10-10T11:07:09.815Z,12.18
2023-10-10T11:09:44.321Z,12.10
2023-10-10T11:12:15.773Z,12.12
2023-10-10T11:14:55.141Z,12.02
2023-10-10T11:17:25.975Z,11.95
2023-10-10T11:19:55.973Z,12.05
2023-10-10T11:22:44.342Z,12.23
2023-10-10T11:25:29.672Z,12.38
2023-10-10T11:28:05.168Z,12.49
2023-10-10T11:30:35.408Z,12.58
2023-10-10T11:33:20.947Z,12.66
2023-10-10T11:36:02.813Z,12.67
2023-10-10T11:38:38.186Z,12.68
2023-10-10T11:41:10.627Z,12.77
2023-10-10T11:44:01.493Z,12.83
2023-10-10T11:46:31.520Z,12.60
2023-10-10T11:49:01.492Z,12.67
2023-10-10T11:51:39.621Z,12.62
2023-10-10T11:54:14.042Z,12.50
2023-10-10T11:56:43.301Z,12.38
2023-10-10T11:59:12.296Z,12.23
2023-10-10T12:01:51.397Z,12.18
2023-10-10T12:04:32.935Z,12.17
2023-10-10T12:07:06.486Z,12.16
2023-10-10T12:09:35.848Z,12.20
2023-10-10T12:12:07.679Z,12.34
2023-10-10T12:14:36.723Z,12.41
2023-10-10T12:17:09.032Z,12.41
2023-10-10T12:19:45.369Z,12.46
2023-10-10T12:22:14.424Z,12.45
2023-10-10T12:24:43.079Z,12.41
2023-10-10T12:27:11.903Z,12.43
2023-10-10T12:29:43.438Z,12.42
2023-10-10T12:32:23.889Z,12.53
2023-10-10T12:34:52.649Z,12.69
2023-10-10T12:37:24.794Z,12.82
2023-10-10T12:39:53.844Z,12.87
2023-10-10T12:42:22.608Z,12.82
2023-10-10T12:44:51.295Z,12.88
2023-10-10T12:47:28.176Z,12.84
2023-10-10T12:50:01.960Z,12.80
2023-10-10T12:52:37.009Z,12.80
2023-10-10T12:55:11.350Z,12.80
2023-10-10T12:57:40.579Z,12.77
2023-10-10T13:00:24.961Z,12.76
2023-10-10T13:02:55.307Z,12.73
2023-10-10T13:05:30.474Z,12.60
2023-10-10T13:08:07.792Z,12.55
2023-10-10T13:10:39.008Z,12.61
2023-10-10T13:13:11.011Z,12.67
2023-10-10T13:15:50.678Z,12.71
2023-10-10T13:18:22.054Z,12.89
2023-10-10T13:21:02.660Z,13.01
2023-10-10T13:23:32.037Z,13.05
2023-10-10T13:26:00.609Z,13.16
2023-10-10T13:28:29.305Z,13.07
2023-10-10T13:30:59.528Z,13.22
2023-10-10T13:33:28.194Z,13.36
2023-10-10T13:35:56.827Z,13.47
2023-10-10T13:38:26.628Z,13.55
2023-10-10T13:40:55.374Z,13.68
2023-10-10T13:43:23.924Z,13.74
2023-10-10T13:45:52.747Z,13.44
2023-10-10T13:48:24.824Z,13.27
2023-10-10T13:50:55.688Z,13.28
2023-10-10T13:53:24.475Z,13.29
2023-10-10T13:55:52.989Z,13.39
2023-10-10T13:58:21.552Z,13.34
2023-10-10T14:00:57.427Z,13.18
2023-10-10T14:03:36.934Z,13.06
2023-10-10T14:06:05.840Z,12.85
2023-10-10T14:08:34.706Z,12.80
2023-10-10T14:11:03.438Z,12.70
2023-10-10T14:13:32.075Z,12.52
2023-10-10T14:16:02.656Z,12.44
2023-10-10T14:18:43.550Z,12.33
2023-10-10T14:21:13.084Z,12.26
2023-10-10T14:23:42.540Z,12.17
2023-10-10T14:26:15.181Z,12.00
2023-10-10T14:28:54.021Z,11.97
2023-10-10T14:31:25.379Z,11.94
2023-10-10T14:33:56.127Z,11.88
2023-10-10T14:36:24.941Z,11.81
2023-10-10T14:38:54.105Z,11.82
2023-10-10T14:41:24.156Z,11.79
2023-10-10T14:43:56.012Z,11.74
2023-10-10T14:46:34.346Z,11.69
2023-10-10T14:49:18.562Z,11.60
2023-10-10T14:51:49.989Z,11.59
2023-10-10T14:54:21.420Z,11.56
2023-10-10T14:56:53.944Z,11.49
2023-10-10T14:59:33.121Z,11.44
2023-10-10T15:02:02.357Z,11.39
2023-10-10T15:04:31.301Z,11.29
2023-10-10T15:07:00.687Z,11.25
2023-10-10T15:09:36.866Z,11.20
2023-10-10T15:12:08.458Z,11.15
2023-10-10T15:14:37.051Z,11.12
2023-10-10T15:17:06.468Z,11.12
2023-10-10T15:19:35.194Z,11.10
2023-10-10T15:22:04.157Z,11.06
2023-10-10T15:24:40.352Z,11.01
2023-10-10T15:27:12.123Z,10.94
2023-10-10T15:29:44.475Z,10.91
2023-10-10T15:32:16.469Z,10.86
2023-10-10T15:34:46.049Z,10.81
2023-10-10T15:37:17.321Z,10.74
2023-10-10T15:39:45.770Z,10.57
2023-10-10T15:42:14.298Z,10.59
2023-10-10T15:44:46.054Z,10.43
2023-10-10T15:47:15.691Z,10.32
2023-10-10T15:49:44.241Z,10.23
2023-10-10T15:52:12.796Z,10.17
2023-10-10T15:54:41.413Z,10.10
2023-10-10T15:57:10.832Z,9.95
2023-10-10T15:59:43.839Z,9.84
2023-10-10T16:02:15.392Z,9.78
2023-10-10T16:04:46.346Z,9.75
2023-10-10T16:07:18.079Z,9.74
2023-10-10T16:09:46.998Z,9.68
2023-10-10T16:12:15.870Z,9.65
2023-10-10T16:14:44.502Z,9.62
2023-10-10T16:17:17.636Z,9.58
2023-10-10T16:19:47.304Z,9.62
2023-10-10T16:22:16.307Z,9.58
2023-10-10T16:24:46.091Z,9.61
2023-10-10T16:27:14.664Z,9.60
2023-10-10T16:29:43.933Z,9.47
2023-10-10T16:32:19.843Z,9.51
2023-10-10T16:34:48.895Z,9.48
2023-10-10T16:37:20.011Z,9.44
2023-10-10T16:39:50.111Z,9.42
2023-10-10T16:42:20.987Z,9.41
2023-10-10T16:44:54.597Z,9.40
2023-10-10T16:47:23.728Z,9.38
2023-10-10T16:49:52.662Z,9.40
2023-10-10T16:52:21.653Z,9.37
2023-10-10T16:54:53.401Z,9.40
2023-10-10T16:57:25.759Z,9.36
2023-10-10T16:59:57.978Z,9.35
2023-10-10T17:02:30.020Z,9.38
2023-10-10T17:05:02.532Z,9.38
2023-10-10T17:07:31.302Z,9.36
2023-10-10T17:10:06.438Z,9.36
2023-10-10T17:12:35.290Z,9.33
2023-10-10T17:15:06.226Z,9.35
2023-10-10T17:17:37.169Z,9.34
2023-10-10T17:20:06.929Z,9.32
2023-10-10T17:22:37.364Z,9.28
2023-10-10T17:25:09.897Z,9.30
2023-10-10T17:27:39.122Z,9.30
2023-10-10T17:30:15.566Z,9.29
2023-10-10T17:32:45.183Z,9.28
2023-10-10T17:35:13.938Z,9.26
2023-10-10T17:37:42.952Z,9.19
2023-10-10T17:40:14.687Z,9.17
2023-10-10T17:42:47.639Z,9.15
2023-10-10T17:45:16.313Z,9.13
2023-10-10T17:47:45.009Z,9.11
2023-10-10T17:50:16.700Z,9.07
2023-10-10T17:52:45.745Z,9.06
2023-10-10T17:55:14.576Z,9.06
2023-10-10T17:57:43.494Z,9.01
2023-10-10T18:00:15.755Z,9.05
2023-10-10T18:02:47.566Z,9.05
2023-10-10T18:05:16.396Z,9.06
2023-10-10T18:07:45.506Z,9.04
2023-10-10T18:10:14.588Z,9.01
2023-10-10T18:12:43.863Z,8.98
2023-10-10T18:15:12.902Z,8.95
2023-10-10T18:17:41.510Z,8.92
2023-10-10T18:20:16.306Z,8.88
2023-10-10T18:22:46.816Z,8.83
2023-10-10T18:25:15.561Z,8.82
2023-10-10T18:27:46.286Z,8.83
2023-10-10T18:30:20.858Z,8.84
2023-10-10T18:32:52.857Z,8.86
2023-10-10T18:35:21.470Z,8.84
2023-10-10T18:37:50.168Z,8.90
2023-10-10T18:40:19.611Z,8.91
2023-10-10T18:42:49.924Z,8.91
2023-10-10T18:45:19.956Z,8.91
2023-10-10T18:47:49.045Z,8.92
2023-10-10T18:50:22.173Z,8.92
2023-10-10T18:52:53.108Z,8.89
2023-10-10T18:55:26.647Z,8.87
2023-10-10T18:58:01.650Z,8.70
2023-10-10T19:00:36.122Z,8.50
2023-10-10T19:03:08.739Z,8.48
2023-10-10T19:05:37.825Z,8.40
2023-10-10T19:08:07.347Z,8.37
2023-10-10T19:10:36.735Z,8.28
2023-10-10T19:13:06.192Z,8.28
2023-10-10T19:15:41.959Z,8.24
2023-10-10T19:18:12.027Z,8.21
2023-10-10T19:20:41.222Z,8.19
2023-10-10T19:23:10.731Z,8.17
2023-10-10T19:25:57.407Z,8.12
2023-10-10T19:28:26.020Z,8.15
2023-10-10T19:30:54.558Z,8.13
2023-10-10T19:33:23.702Z,8.12
2023-10-10T19:35:52.397Z,8.10
2023-10-10T19:38:27.127Z,8.04
2023-10-10T19:40:57.109Z,8.07
2023-10-10T19:43:26.686Z,8.02
2023-10-10T19:45:56.448Z,7.96
2023-10-10T19:48:28.847Z,7.87
2023-10-10T19:50:58.393Z,7.81
2023-10-10T19:53:30.137Z,7.70
2023-10-10T19:55:58.649Z,7.73
2023-10-10T19:58:27.221Z,7.67
2023-10-10T20:00:55.783Z,7.71
2023-10-10T20:03:29.259Z,7.69
2023-10-10T20:05:59.017Z,7.65
2023-10-10T20:08:27.704Z,7.61
2023-10-10T20:10:57.910Z,7.58
2023-10-10T20:13:27.942Z,7.55
2023-10-10T20:15:56.410Z,7.56
2023-10-10T20:18:26.452Z,7.57
2023-10-10T20:20:55.198Z,7.45
2023-10-10T20:23:23.811Z,7.38
2023-10-10T20:25:52.626Z,7.33
2023-10-10T20:28:21.297Z,7.31
2023-10-10T20:30:49.978Z,7.26
2023-10-10T20:33:19.888Z,7.19
2023-10-10T20:35:48.610Z,7.18
2023-10-10T20:38:21.013Z,7.19
2023-10-10T20:40:49.745Z,7.16
2023-10-10T20:43:18.313Z,7.08
2023-10-10T20:45:46.851Z,7.09
2023-10-10T20:48:23.284Z,7.12
2023-10-10T20:50:52.106Z,6.94
2023-10-10T20:53:29.402Z,7.00
2023-10-10T20:55:58.073Z,7.01
2023-10-10T20:58:26.729Z,7.03
2023-10-10T21:00:56.586Z,7.05
2023-10-10T21:03:25.260Z,7.07
2023-10-10T21:05:53.967Z,7.08
2023-10-10T21:08:22.549Z,7.06
2023-10-10T21:10:51.855Z,6.96
2023-10-10T21:13:20.511Z,6.92
2023-10-10T21:15:50.727Z,6.92
2023-10-10T21:18:22.713Z,6.89
2023-10-10T21:21:02.842Z,6.88
2023-10-10T21:23:32.961Z,6.84
2023-10-10T21:26:04.459Z,6.82
2023-10-10T21:28:33.062Z,6.76
2023-10-10T21:31:09.531Z,6.82
2023-10-10T21:33:42.072Z,6.77
2023-10-10T21:36:14.643Z,6.78
2023-10-10T21:38:43.695Z,6.81
2023-10-10T21:41:13.058Z,6.85
2023-10-10T21:43:41.662Z,6.86
2023-10-10T21:46:10.410Z,6.83
2023-10-10T21:48:41.184Z,6.87
2023-10-10T21:51:09.855Z,6.91
2023-10-10T21:53:38.526Z,6.93
2023-10-10T21:56:08.286Z,6.93
2023-10-10T21:58:40.639Z,6.94
2023-10-10T22:01:12.616Z,6.97
2023-10-10T22:03:46.028Z,6.93
2023-10-10T22:06:15.101Z,6.82
2023-10-10T22:08:46.496Z,6.80
2023-10-10T22:11:15.951Z,6.78
2023-10-10T22:13:45.320Z,6.75
2023-10-10T22:16:13.894Z,6.61
2023-10-10T22:18:42.953Z,6.57
2023-10-10T22:21:11.761Z,6.51
2023-10-10T22:23:40.806Z,6.52
2023-10-10T22:26:10.617Z,6.56
2023-10-10T22:28:40.402Z,6.59
2023-10-10T22:31:15.837Z,6.55
2023-10-10T22:33:45.619Z,6.46
2023-10-10T22:36:17.933Z,6.27
2023-10-10T22:38:47.209Z,6.27
2023-10-10T22:41:16.536Z,6.23
2023-10-10T22:43:46.087Z,6.22
2023-10-10T22:46:14.712Z,6.25
2023-10-10T22:48:44.676Z,6.30
2023-10-10T22:51:14.672Z,6.33
2023-10-10T22:53:47.522Z,6.30
2023-10-10T22:56:19.551Z,6.27
2023-10-10T22:58:48.652Z,6.26
2023-10-10T23:01:17.358Z,6.29
2023-10-10T23:03:49.288Z,6.34
2023-10-10T23:06:17.887Z,6.39
2023-10-10T23:08:47.401Z,6.44
2023-10-10T23:11:18.239Z,6.47
2023-10-10T23:13:47.582Z,6.47
2023-10-10T23:16:18.689Z,6.52
2023-10-10T23:18:47.617Z,6.62
2023-10-10T23:21:16.286Z,6.66
2023-10-10T23:23:45.013Z,6.70
2023-10-10T23:26:20.036Z,6.75
2023-10-10T23:28:50.091Z,6.79
2023-10-10T23:31:20.069Z,6.78
2023-10-10T23:33:48.640Z,6.68
2023-10-10T23:36:20.313Z,6.65
2023-10-10T23:38:49.724Z,6.67
2023-10-10T23:41:19.937Z,6.69
2023-10-10T23:43:48.550Z,6.66
2023-10-10T23:46:23.895Z,6.72
2023-10-10T23:48:56.221Z,6.74
2023-10-10T23:51:24.981Z,6.77
2023-10-10T23:53:53.578Z,6.81
2023-10-10T23:56:24.217Z,6.80
2023-10-10T23:58:53.406Z,6.86
